sensor_id;sensor_type;location;lat;lon;timestamp;temperature;humidity
14006;DHT22;7078;51.542;7.314;2023-08-21T00:02:23;18.00;99.90
14006;DHT22;7078;51.542;7.314;2023-08-21T00:04:50;17.90;99.90
14006;DHT22;7078;51.542;7.314;2023-08-21T00:07:16;17.90;99.90
14006;DHT22;7078;51.542;7.314;2023-08-21T00:09:41;17.80;99.90
14006;DHT22;7078;51.542;7.314;2023-08-21T00:12:07;17.80;99.90
14006;DHT22;7078;51.542;7.314;2023-08-21T00:14:33;17.80;99.90
14006;DHT22;7078;51.542;7.314;2023-08-21T00:16:58;17.80;99.90
14006;DHT22;7078;51.542;7.314;2023-08-21T00:19:24;17.70;99.90
14006;DHT22;7078;51.542;7.314;2023-08-21T00:21:49;17.70;99.90
14006;DHT22;7078;51.542;7.314;2023-08-21T00:24:15;17.70;99.90
14006;DHT22;7078;51.542;7.314;2023-08-21T00:26:41;17.80;99.90
14006;DHT22;7078;51.542;7.314;2023-08-21T00:29:06;17.70;99.90
14006;DHT22;7078;51.542;7.314;2023-08-21T00:31:32;17.80;99.90
14006;DHT22;7078;51.542;7.314;2023-08-21T00:33:57;17.80;99.90
14006;DHT22;7078;51.542;7.314;2023-08-21T00:36:23;17.70;99.90
14006;DHT22;7078;51.542;7.314;2023-08-21T00:38:48;17.70;99.90
14006;DHT22;7078;51.542;7.314;2023-08-21T00:41:14;17.80;99.90
14006;DHT22;7078;51.542;7.314;2023-08-21T00:43:39;17.70;99.90
14006;DHT22;7078;51.542;7.314;2023-08-21T00:46:05;17.70;99.90
14006;DHT22;7078;51.542;7.314;2023-08-21T00:48:31;17.70;99.90
14006;DHT22;7078;51.542;7.314;2023-08-21T00:50:57;17.70;99.90
14006;DHT22;7078;51.542;7.314;2023-08-21T00:53:24;17.70;99.90
14006;DHT22;7078;51.542;7.314;2023-08-21T00:55:49;17.60;99.90
14006;DHT22;7078;51.542;7.314;2023-08-21T00:58:16;17.60;99.90
14006;DHT22;7078;51.542;7.314;2023-08-21T01:00:45;17.70;99.90
14006;DHT22;7078;51.542;7.314;2023-08-21T01:03:10;17.70;99.90
14006;DHT22;7078;51.542;7.314;2023-08-21T01:05:36;17.70;99.90
14006;DHT22;7078;51.542;7.314;2023-08-21T01:08:08;17.70;99.90
14006;DHT22;7078;51.542;7.314;2023-08-21T01:10:52;17.60;99.90
14006;DHT22;7078;51.542;7.314;2023-08-21T01:13:32;17.60;99.90
14006;DHT22;7078;51.542;7.314;2023-08-21T01:16:00;17.50;99.90
14006;DHT22;7078;51.542;7.314;2023-08-21T01:18:28;17.50;99.90
14006;DHT22;7078;51.542;7.314;2023-08-21T01:20:54;17.40;99.90
14006;DHT22;7078;51.542;7.314;2023-08-21T01:23:47;17.40;99.90
14006;DHT22;7078;51.542;7.314;2023-08-21T01:26:12;17.50;99.90
14006;DHT22;7078;51.542;7.314;2023-08-21T01:28:38;17.50;99.90
14006;DHT22;7078;51.542;7.314;2023-08-21T01:31:21;17.50;99.90
14006;DHT22;7078;51.542;7.314;2023-08-21T01:33:53;17.50;99.90
14006;DHT22;7078;51.542;7.314;2023-08-21T01:36:20;17.60;99.90
14006;DHT22;7078;51.542;7.314;2023-08-21T01:38:46;17.60;99.90
14006;DHT22;7078;51.542;7.314;2023-08-21T01:41:12;17.60;99.90
14006;DHT22;7078;51.542;7.314;2023-08-21T01:43:37;17.50;99.90
14006;DHT22;7078;51.542;7.314;2023-08-21T01:46:03;17.60;99.90
14006;DHT22;7078;51.542;7.314;2023-08-21T01:48:29;17.60;99.90
14006;DHT22;7078;51.542;7.314;2023-08-21T01:50:54;17.60;99.90
14006;DHT22;7078;51.542;7.314;2023-08-21T01:53:20;17.60;99.90
14006;DHT22;7078;51.542;7.314;2023-08-21T01:55:45;17.60;99.90
14006;DHT22;7078;51.542;7.314;2023-08-21T01:58:11;17.60;99.90
14006;DHT22;7078;51.542;7.314;2023-08-21T02:00:37;17.70;99.90
14006;DHT22;7078;51.542;7.314;2023-08-21T02:03:02;17.60;99.90
14006;DHT22;7078;51.542;7.314;2023-08-21T02:05:28;17.60;99.90
14006;DHT22;7078;51.542;7.314;2023-08-21T02:07:54;17.50;99.90
14006;DHT22;7078;51.542;7.314;2023-08-21T02:10:19;17.50;99.90
14006;DHT22;7078;51.542;7.314;2023-08-21T02:12:45;17.50;99.90
14006;DHT22;7078;51.542;7.314;2023-08-21T02:15:10;17.50;99.90
14006;DHT22;7078;51.542;7.314;2023-08-21T02:17:36;17.40;99.90
14006;DHT22;7078;51.542;7.314;2023-08-21T02:20:02;17.50;99.90
14006;DHT22;7078;51.542;7.314;2023-08-21T02:22:27;17.40;99.90
14006;DHT22;7078;51.542;7.314;2023-08-21T02:24:53;17.40;99.90
14006;DHT22;7078;51.542;7.314;2023-08-21T02:27:19;17.40;99.90
14006;DHT22;7078;51.542;7.314;2023-08-21T02:29:44;17.30;99.90
14006;DHT22;7078;51.542;7.314;2023-08-21T02:32:10;17.30;99.90
14006;DHT22;7078;51.542;7.314;2023-08-21T02:34:35;17.20;99.90
14006;DHT22;7078;51.542;7.314;2023-08-21T02:37:01;17.20;99.90
14006;DHT22;7078;51.542;7.314;2023-08-21T02:39:28;17.20;99.90
14006;DHT22;7078;51.542;7.314;2023-08-21T02:41:53;17.20;99.90
14006;DHT22;7078;51.542;7.314;2023-08-21T02:44:19;17.20;99.90
14006;DHT22;7078;51.542;7.314;2023-08-21T02:46:44;17.20;99.90
14006;DHT22;7078;51.542;7.314;2023-08-21T02:49:10;17.20;99.90
14006;DHT22;7078;51.542;7.314;2023-08-21T02:51:36;17.20;99.90
14006;DHT22;7078;51.542;7.314;2023-08-21T02:54:01;17.20;99.90
14006;DHT22;7078;51.542;7.314;2023-08-21T02:56:27;17.10;99.90
14006;DHT22;7078;51.542;7.314;2023-08-21T02:58:52;17.10;99.90
14006;DHT22;7078;51.542;7.314;2023-08-21T03:01:18;17.10;99.90
14006;DHT22;7078;51.542;7.314;2023-08-21T03:03:44;17.10;99.90
14006;DHT22;7078;51.542;7.314;2023-08-21T03:06:09;17.10;99.90
14006;DHT22;7078;51.542;7.314;2023-08-21T03:08:35;17.10;99.90
14006;DHT22;7078;51.542;7.314;2023-08-21T03:11:00;17.10;99.90
14006;DHT22;7078;51.542;7.314;2023-08-21T03:13:26;17.10;99.90
14006;DHT22;7078;51.542;7.314;2023-08-21T03:15:51;17.10;99.90
14006;DHT22;7078;51.542;7.314;2023-08-21T03:18:17;17.10;99.90
14006;DHT22;7078;51.542;7.314;2023-08-21T03:20:46;17.00;99.90
14006;DHT22;7078;51.542;7.314;2023-08-21T03:23:12;17.00;99.90
14006;DHT22;7078;51.542;7.314;2023-08-21T03:25:38;17.00;99.90
14006;DHT22;7078;51.542;7.314;2023-08-21T03:28:03;17.00;99.90
14006;DHT22;7078;51.542;7.314;2023-08-21T03:30:29;17.00;99.90
14006;DHT22;7078;51.542;7.314;2023-08-21T03:32:54;17.00;99.90
14006;DHT22;7078;51.542;7.314;2023-08-21T03:35:20;17.00;99.90
14006;DHT22;7078;51.542;7.314;2023-08-21T03:37:45;16.90;99.90
14006;DHT22;7078;51.542;7.314;2023-08-21T03:40:11;16.90;99.90
14006;DHT22;7078;51.542;7.314;2023-08-21T03:42:37;16.90;99.90
14006;DHT22;7078;51.542;7.314;2023-08-21T03:45:03;16.90;99.90
14006;DHT22;7078;51.542;7.314;2023-08-21T03:47:30;16.90;99.90
14006;DHT22;7078;51.542;7.314;2023-08-21T03:49:56;16.90;99.90
14006;DHT22;7078;51.542;7.314;2023-08-21T03:52:21;16.90;99.90
14006;DHT22;7078;51.542;7.314;2023-08-21T03:54:47;16.90;99.90
14006;DHT22;7078;51.542;7.314;2023-08-21T03:57:12;16.80;99.90
14006;DHT22;7078;51.542;7.314;2023-08-21T03:59:38;16.80;99.90
14006;DHT22;7078;51.542;7.314;2023-08-21T04:02:04;16.80;99.90
14006;DHT22;7078;51.542;7.314;2023-08-21T04:04:29;16.80;99.90
14006;DHT22;7078;51.542;7.314;2023-08-21T04:06:55;16.80;99.90
14006;DHT22;7078;51.542;7.314;2023-08-21T04:09:20;16.80;99.90
14006;DHT22;7078;51.542;7.314;2023-08-21T04:11:46;16.80;99.90
14006;DHT22;7078;51.542;7.314;2023-08-21T04:14:11;16.80;99.90
14006;DHT22;7078;51.542;7.314;2023-08-21T04:16:37;16.80;99.90
14006;DHT22;7078;51.542;7.314;2023-08-21T04:19:02;16.80;99.90
14006;DHT22;7078;51.542;7.314;2023-08-21T04:21:28;16.80;99.90
14006;DHT22;7078;51.542;7.314;2023-08-21T04:23:53;16.90;99.90
14006;DHT22;7078;51.542;7.314;2023-08-21T04:26:19;16.80;99.90
14006;DHT22;7078;51.542;7.314;2023-08-21T04:28:45;16.80;99.90
14006;DHT22;7078;51.542;7.314;2023-08-21T04:31:11;16.80;99.90
14006;DHT22;7078;51.542;7.314;2023-08-21T04:33:36;16.80;99.90
14006;DHT22;7078;51.542;7.314;2023-08-21T04:36:02;16.80;99.90
14006;DHT22;7078;51.542;7.314;2023-08-21T04:38:27;16.70;99.90
14006;DHT22;7078;51.542;7.314;2023-08-21T04:40:53;16.80;99.90
14006;DHT22;7078;51.542;7.314;2023-08-21T04:43:18;16.80;99.90
14006;DHT22;7078;51.542;7.314;2023-08-21T04:45:51;16.80;99.90
14006;DHT22;7078;51.542;7.314;2023-08-21T04:48:18;16.80;99.90
14006;DHT22;7078;51.542;7.314;2023-08-21T04:50:45;16.80;99.90
14006;DHT22;7078;51.542;7.314;2023-08-21T04:53:10;16.80;99.90
14006;DHT22;7078;51.542;7.314;2023-08-21T04:55:36;16.80;99.90
14006;DHT22;7078;51.542;7.314;2023-08-21T04:58:02;16.90;99.90
14006;DHT22;7078;51.542;7.314;2023-08-21T05:00:27;16.90;99.90
14006;DHT22;7078;51.542;7.314;2023-08-21T05:02:53;17.00;99.90
14006;DHT22;7078;51.542;7.314;2023-08-21T05:05:19;17.00;99.90
14006;DHT22;7078;51.542;7.314;2023-08-21T05:07:45;17.10;99.90
14006;DHT22;7078;51.542;7.314;2023-08-21T05:10:11;17.10;99.90
14006;DHT22;7078;51.542;7.314;2023-08-21T05:12:36;17.10;99.90
14006;DHT22;7078;51.542;7.314;2023-08-21T05:15:02;17.20;99.90
14006;DHT22;7078;51.542;7.314;2023-08-21T05:17:28;17.20;99.90
14006;DHT22;7078;51.542;7.314;2023-08-21T05:19:55;17.30;99.90
14006;DHT22;7078;51.542;7.314;2023-08-21T05:22:20;17.40;99.90
14006;DHT22;7078;51.542;7.314;2023-08-21T05:24:46;17.50;99.90
14006;DHT22;7078;51.542;7.314;2023-08-21T05:27:11;17.60;99.90
14006;DHT22;7078;51.542;7.314;2023-08-21T05:29:37;17.60;99.90
14006;DHT22;7078;51.542;7.314;2023-08-21T05:32:02;17.70;99.90
14006;DHT22;7078;51.542;7.314;2023-08-21T05:34:28;17.70;99.90
14006;DHT22;7078;51.542;7.314;2023-08-21T05:36:54;17.80;99.90
14006;DHT22;7078;51.542;7.314;2023-08-21T05:39:20;18.00;99.90
14006;DHT22;7078;51.542;7.314;2023-08-21T05:41:45;18.10;99.90
14006;DHT22;7078;51.542;7.314;2023-08-21T05:44:11;18.20;99.90
14006;DHT22;7078;51.542;7.314;2023-08-21T05:46:37;18.30;99.90
14006;DHT22;7078;51.542;7.314;2023-08-21T05:49:03;18.40;99.90
14006;DHT22;7078;51.542;7.314;2023-08-21T05:51:29;18.50;99.90
14006;DHT22;7078;51.542;7.314;2023-08-21T05:53:55;18.60;99.90
14006;DHT22;7078;51.542;7.314;2023-08-21T05:56:21;18.60;99.90
14006;DHT22;7078;51.542;7.314;2023-08-21T05:58:47;18.60;99.90
14006;DHT22;7078;51.542;7.314;2023-08-21T06:01:12;18.70;99.90
14006;DHT22;7078;51.542;7.314;2023-08-21T06:03:38;18.80;99.90
14006;DHT22;7078;51.542;7.314;2023-08-21T06:06:03;19.00;99.90
14006;DHT22;7078;51.542;7.314;2023-08-21T06:08:29;19.20;99.90
14006;DHT22;7078;51.542;7.314;2023-08-21T06:10:54;19.20;99.90
14006;DHT22;7078;51.542;7.314;2023-08-21T06:13:21;19.30;99.90
14006;DHT22;7078;51.542;7.314;2023-08-21T06:15:46;19.40;99.90
14006;DHT22;7078;51.542;7.314;2023-08-21T06:18:13;19.50;99.90
14006;DHT22;7078;51.542;7.314;2023-08-21T06:20:39;19.60;99.90
14006;DHT22;7078;51.542;7.314;2023-08-21T06:23:04;19.70;99.90
14006;DHT22;7078;51.542;7.314;2023-08-21T06:25:32;19.90;99.90
14006;DHT22;7078;51.542;7.314;2023-08-21T06:27:57;20.00;99.90
14006;DHT22;7078;51.542;7.314;2023-08-21T06:30:23;20.20;99.90
14006;DHT22;7078;51.542;7.314;2023-08-21T06:32:48;20.30;99.90
14006;DHT22;7078;51.542;7.314;2023-08-21T06:35:15;20.30;99.90
14006;DHT22;7078;51.542;7.314;2023-08-21T06:37:40;20.30;99.90
14006;DHT22;7078;51.542;7.314;2023-08-21T06:40:06;20.40;99.90
14006;DHT22;7078;51.542;7.314;2023-08-21T06:42:32;20.40;99.90
14006;DHT22;7078;51.542;7.314;2023-08-21T06:44:57;20.40;99.90
14006;DHT22;7078;51.542;7.314;2023-08-21T06:47:23;20.50;99.90
14006;DHT22;7078;51.542;7.314;2023-08-21T06:49:49;20.70;99.90
14006;DHT22;7078;51.542;7.314;2023-08-21T06:52:14;20.70;99.90
14006;DHT22;7078;51.542;7.314;2023-08-21T06:54:40;20.90;99.90
14006;DHT22;7078;51.542;7.314;2023-08-21T06:57:05;20.90;99.90
14006;DHT22;7078;51.542;7.314;2023-08-21T06:59:31;20.90;99.90
14006;DHT22;7078;51.542;7.314;2023-08-21T07:02:04;20.90;99.90
14006;DHT22;7078;51.542;7.314;2023-08-21T07:04:29;21.00;99.90
14006;DHT22;7078;51.542;7.314;2023-08-21T07:06:55;20.90;99.90
14006;DHT22;7078;51.542;7.314;2023-08-21T07:09:20;20.80;99.90
14006;DHT22;7078;51.542;7.314;2023-08-21T07:11:46;20.80;99.90
14006;DHT22;7078;51.542;7.314;2023-08-21T07:14:11;20.90;99.90
14006;DHT22;7078;51.542;7.314;2023-08-21T07:16:39;21.10;99.90
14006;DHT22;7078;51.542;7.314;2023-08-21T07:19:05;21.10;99.90
14006;DHT22;7078;51.542;7.314;2023-08-21T07:21:30;21.20;99.90
14006;DHT22;7078;51.542;7.314;2023-08-21T07:23:56;21.40;99.90
14006;DHT22;7078;51.542;7.314;2023-08-21T07:26:21;21.50;99.90
14006;DHT22;7078;51.542;7.314;2023-08-21T07:28:47;21.70;99.90
14006;DHT22;7078;51.542;7.314;2023-08-21T07:31:12;21.80;99.90
14006;DHT22;7078;51.542;7.314;2023-08-21T07:33:38;21.80;99.90
14006;DHT22;7078;51.542;7.314;2023-08-21T07:36:05;21.80;99.90
14006;DHT22;7078;51.542;7.314;2023-08-21T07:38:31;21.90;99.90
14006;DHT22;7078;51.542;7.314;2023-08-21T07:41:04;22.00;99.90
14006;DHT22;7078;51.542;7.314;2023-08-21T07:43:31;22.10;99.90
14006;DHT22;7078;51.542;7.314;2023-08-21T07:45:57;22.10;99.90
14006;DHT22;7078;51.542;7.314;2023-08-21T07:48:22;22.00;99.90
14006;DHT22;7078;51.542;7.314;2023-08-21T07:50:54;21.90;99.90
14006;DHT22;7078;51.542;7.314;2023-08-21T07:53:19;21.70;99.90
14006;DHT22;7078;51.542;7.314;2023-08-21T07:55:45;21.60;99.90
14006;DHT22;7078;51.542;7.314;2023-08-21T07:58:11;21.50;99.90
14006;DHT22;7078;51.542;7.314;2023-08-21T08:00:37;21.40;99.90
14006;DHT22;7078;51.542;7.314;2023-08-21T08:03:04;21.40;99.90
14006;DHT22;7078;51.542;7.314;2023-08-21T08:05:31;21.40;99.90
14006;DHT22;7078;51.542;7.314;2023-08-21T08:07:56;21.40;99.90
14006;DHT22;7078;51.542;7.314;2023-08-21T08:10:22;21.60;99.90
14006;DHT22;7078;51.542;7.314;2023-08-21T08:12:47;21.60;99.90
14006;DHT22;7078;51.542;7.314;2023-08-21T08:15:13;21.60;99.90
14006;DHT22;7078;51.542;7.314;2023-08-21T08:17:38;21.90;99.90
14006;DHT22;7078;51.542;7.314;2023-08-21T08:20:04;22.10;99.90
14006;DHT22;7078;51.542;7.314;2023-08-21T08:22:31;22.30;99.90
14006;DHT22;7078;51.542;7.314;2023-08-21T08:24:57;22.40;99.90
14006;DHT22;7078;51.542;7.314;2023-08-21T08:27:22;22.50;99.90
14006;DHT22;7078;51.542;7.314;2023-08-21T08:29:48;22.60;99.90
14006;DHT22;7078;51.542;7.314;2023-08-21T08:32:14;22.60;99.90
14006;DHT22;7078;51.542;7.314;2023-08-21T08:34:39;22.60;99.90
14006;DHT22;7078;51.542;7.314;2023-08-21T08:37:05;22.70;99.90
14006;DHT22;7078;51.542;7.314;2023-08-21T08:39:30;22.80;99.90
14006;DHT22;7078;51.542;7.314;2023-08-21T08:41:58;22.90;99.90
14006;DHT22;7078;51.542;7.314;2023-08-21T08:44:29;23.00;99.90
14006;DHT22;7078;51.542;7.314;2023-08-21T08:46:55;23.00;99.90
14006;DHT22;7078;51.542;7.314;2023-08-21T08:49:22;23.00;99.90
14006;DHT22;7078;51.542;7.314;2023-08-21T08:51:50;23.20;99.90
14006;DHT22;7078;51.542;7.314;2023-08-21T08:54:17;23.30;99.90
14006;DHT22;7078;51.542;7.314;2023-08-21T08:56:43;23.40;99.90
14006;DHT22;7078;51.542;7.314;2023-08-21T08:59:09;23.40;99.90
14006;DHT22;7078;51.542;7.314;2023-08-21T09:01:34;23.60;99.90
14006;DHT22;7078;51.542;7.314;2023-08-21T09:04:01;23.70;99.90
14006;DHT22;7078;51.542;7.314;2023-08-21T09:06:26;23.90;99.90
14006;DHT22;7078;51.542;7.314;2023-08-21T09:08:57;23.80;99.90
14006;DHT22;7078;51.542;7.314;2023-08-21T09:11:23;23.90;99.90
14006;DHT22;7078;51.542;7.314;2023-08-21T09:13:50;23.90;99.90
14006;DHT22;7078;51.542;7.314;2023-08-21T09:16:21;24.10;99.90
14006;DHT22;7078;51.542;7.314;2023-08-21T09:18:54;24.10;99.90
14006;DHT22;7078;51.542;7.314;2023-08-21T09:21:22;24.30;99.90
14006;DHT22;7078;51.542;7.314;2023-08-21T09:23:56;24.40;99.90
14006;DHT22;7078;51.542;7.314;2023-08-21T09:26:23;24.50;99.90
14006;DHT22;7078;51.542;7.314;2023-08-21T09:28:50;24.60;97.80
14006;DHT22;7078;51.542;7.314;2023-08-21T09:31:16;24.70;97.60
14006;DHT22;7078;51.542;7.314;2023-08-21T09:33:58;24.80;96.90
14006;DHT22;7078;51.542;7.314;2023-08-21T09:36:26;24.70;96.60
14006;DHT22;7078;51.542;7.314;2023-08-21T09:38:51;24.80;95.40
14006;DHT22;7078;51.542;7.314;2023-08-21T09:41:21;24.70;97.80
14006;DHT22;7078;51.542;7.314;2023-08-21T09:43:47;24.70;99.90
14006;DHT22;7078;51.542;7.314;2023-08-21T09:46:16;24.90;96.00
14006;DHT22;7078;51.542;7.314;2023-08-21T09:48:44;24.90;96.80
14006;DHT22;7078;51.542;7.314;2023-08-21T09:51:10;24.90;96.70
14006;DHT22;7078;51.542;7.314;2023-08-21T09:53:37;24.90;97.00
14006;DHT22;7078;51.542;7.314;2023-08-21T09:56:03;25.00;97.10
14006;DHT22;7078;51.542;7.314;2023-08-21T09:58:29;24.90;96.80
14006;DHT22;7078;51.542;7.314;2023-08-21T10:00:57;24.80;96.00
14006;DHT22;7078;51.542;7.314;2023-08-21T10:03:23;25.10;95.00
14006;DHT22;7078;51.542;7.314;2023-08-21T10:05:49;25.20;94.60
14006;DHT22;7078;51.542;7.314;2023-08-21T10:08:24;25.20;94.10
14006;DHT22;7078;51.542;7.314;2023-08-21T10:10:51;25.40;93.50
14006;DHT22;7078;51.542;7.314;2023-08-21T10:13:17;25.50;92.50
14006;DHT22;7078;51.542;7.314;2023-08-21T10:15:43;25.50;90.80
14006;DHT22;7078;51.542;7.314;2023-08-21T10:18:23;25.40;91.30
14006;DHT22;7078;51.542;7.314;2023-08-21T10:20:50;25.40;91.20
14006;DHT22;7078;51.542;7.314;2023-08-21T10:23:28;25.40;91.60
14006;DHT22;7078;51.542;7.314;2023-08-21T10:25:59;25.40;91.40
14006;DHT22;7078;51.542;7.314;2023-08-21T10:28:24;25.40;91.10
14006;DHT22;7078;51.542;7.314;2023-08-21T10:30:50;25.40;91.70
14006;DHT22;7078;51.542;7.314;2023-08-21T10:33:16;25.50;93.40
14006;DHT22;7078;51.542;7.314;2023-08-21T10:35:44;25.80;90.90
14006;DHT22;7078;51.542;7.314;2023-08-21T10:38:14;25.70;91.20
14006;DHT22;7078;51.542;7.314;2023-08-21T10:41:05;25.80;90.70
14006;DHT22;7078;51.542;7.314;2023-08-21T10:43:45;25.90;90.70
14006;DHT22;7078;51.542;7.314;2023-08-21T10:46:11;26.20;90.80
14006;DHT22;7078;51.542;7.314;2023-08-21T10:48:38;26.30;89.40
14006;DHT22;7078;51.542;7.314;2023-08-21T10:51:08;26.40;86.50
14006;DHT22;7078;51.542;7.314;2023-08-21T10:53:34;26.40;89.00
14006;DHT22;7078;51.542;7.314;2023-08-21T10:56:04;26.40;91.50
14006;DHT22;7078;51.542;7.314;2023-08-21T10:58:56;26.40;85.10
14006;DHT22;7078;51.542;7.314;2023-08-21T11:01:22;26.40;87.10
14006;DHT22;7078;51.542;7.314;2023-08-21T11:03:50;26.30;90.00
14006;DHT22;7078;51.542;7.314;2023-08-21T11:06:18;26.40;87.60
14006;DHT22;7078;51.542;7.314;2023-08-21T11:08:44;26.40;89.00
14006;DHT22;7078;51.542;7.314;2023-08-21T11:11:10;26.40;89.40
14006;DHT22;7078;51.542;7.314;2023-08-21T11:13:36;26.50;87.10
14006;DHT22;7078;51.542;7.314;2023-08-21T11:16:04;26.70;90.10
14006;DHT22;7078;51.542;7.314;2023-08-21T11:18:36;26.60;90.00
14006;DHT22;7078;51.542;7.314;2023-08-21T11:21:04;26.70;85.30
14006;DHT22;7078;51.542;7.314;2023-08-21T11:23:37;26.70;85.70
14006;DHT22;7078;51.542;7.314;2023-08-21T11:26:04;26.80;86.60
14006;DHT22;7078;51.542;7.314;2023-08-21T11:28:31;26.80;84.30
14006;DHT22;7078;51.542;7.314;2023-08-21T11:30:58;26.70;86.50
14006;DHT22;7078;51.542;7.314;2023-08-21T11:33:25;26.80;84.60
14006;DHT22;7078;51.542;7.314;2023-08-21T11:35:50;26.90;86.60
14006;DHT22;7078;51.542;7.314;2023-08-21T11:38:20;26.90;83.20
14006;DHT22;7078;51.542;7.314;2023-08-21T11:41:02;26.80;84.30
14006;DHT22;7078;51.542;7.314;2023-08-21T11:43:57;26.90;83.60
14006;DHT22;7078;51.542;7.314;2023-08-21T11:46:26;26.80;84.60
14006;DHT22;7078;51.542;7.314;2023-08-21T11:48:52;26.70;83.60
14006;DHT22;7078;51.542;7.314;2023-08-21T11:51:17;26.80;85.50
14006;DHT22;7078;51.542;7.314;2023-08-21T11:53:44;26.90;83.20
14006;DHT22;7078;51.542;7.314;2023-08-21T11:56:16;26.90;84.40
14006;DHT22;7078;51.542;7.314;2023-08-21T11:58:45;26.80;81.80
14006;DHT22;7078;51.542;7.314;2023-08-21T12:01:19;26.80;81.00
14006;DHT22;7078;51.542;7.314;2023-08-21T12:03:45;26.80;80.60
14006;DHT22;7078;51.542;7.314;2023-08-21T12:06:12;27.00;81.50
14006;DHT22;7078;51.542;7.314;2023-08-21T12:08:40;27.10;79.90
14006;DHT22;7078;51.542;7.314;2023-08-21T12:11:07;27.30;81.10
14006;DHT22;7078;51.542;7.314;2023-08-21T12:13:33;27.30;79.60
14006;DHT22;7078;51.542;7.314;2023-08-21T12:15:59;27.30;80.00
14006;DHT22;7078;51.542;7.314;2023-08-21T12:18:24;27.40;76.90
14006;DHT22;7078;51.542;7.314;2023-08-21T12:20:50;27.20;78.30
14006;DHT22;7078;51.542;7.314;2023-08-21T12:23:15;27.10;78.70
14006;DHT22;7078;51.542;7.314;2023-08-21T12:25:41;27.10;79.80
14006;DHT22;7078;51.542;7.314;2023-08-21T12:28:07;27.00;80.10
14006;DHT22;7078;51.542;7.314;2023-08-21T12:30:34;27.10;80.10
14006;DHT22;7078;51.542;7.314;2023-08-21T12:32:59;27.10;79.20
14006;DHT22;7078;51.542;7.314;2023-08-21T12:35:25;27.10;79.50
14006;DHT22;7078;51.542;7.314;2023-08-21T12:37:50;27.20;80.30
14006;DHT22;7078;51.542;7.314;2023-08-21T12:40:16;27.30;82.30
14006;DHT22;7078;51.542;7.314;2023-08-21T12:42:41;27.50;80.60
14006;DHT22;7078;51.542;7.314;2023-08-21T12:45:07;27.60;76.00
14006;DHT22;7078;51.542;7.314;2023-08-21T12:47:33;27.70;77.10
14006;DHT22;7078;51.542;7.314;2023-08-21T12:49:58;27.80;79.90
14006;DHT22;7078;51.542;7.314;2023-08-21T12:52:24;28.00;81.40
14006;DHT22;7078;51.542;7.314;2023-08-21T12:54:50;28.10;76.00
14006;DHT22;7078;51.542;7.314;2023-08-21T12:57:15;28.10;76.10
14006;DHT22;7078;51.542;7.314;2023-08-21T12:59:42;28.10;75.00
14006;DHT22;7078;51.542;7.314;2023-08-21T13:02:08;28.10;76.50
14006;DHT22;7078;51.542;7.314;2023-08-21T13:04:33;28.20;75.80
14006;DHT22;7078;51.542;7.314;2023-08-21T13:06:59;28.30;77.40
14006;DHT22;7078;51.542;7.314;2023-08-21T13:09:25;28.50;75.50
14006;DHT22;7078;51.542;7.314;2023-08-21T13:11:51;28.60;74.70
14006;DHT22;7078;51.542;7.314;2023-08-21T13:14:16;28.80;74.60
14006;DHT22;7078;51.542;7.314;2023-08-21T13:16:42;28.80;73.60
14006;DHT22;7078;51.542;7.314;2023-08-21T13:19:07;28.90;74.80
14006;DHT22;7078;51.542;7.314;2023-08-21T13:21:33;29.00;72.20
14006;DHT22;7078;51.542;7.314;2023-08-21T13:23:58;29.00;72.60
14006;DHT22;7078;51.542;7.314;2023-08-21T13:26:24;28.80;72.50
14006;DHT22;7078;51.542;7.314;2023-08-21T13:28:51;28.70;73.50
14006;DHT22;7078;51.542;7.314;2023-08-21T13:31:17;28.50;73.20
14006;DHT22;7078;51.542;7.314;2023-08-21T13:33:49;28.20;75.10
14006;DHT22;7078;51.542;7.314;2023-08-21T13:36:15;28.00;76.90
14006;DHT22;7078;51.542;7.314;2023-08-21T13:38:42;27.90;79.20
14006;DHT22;7078;51.542;7.314;2023-08-21T13:41:08;28.00;79.30
14006;DHT22;7078;51.542;7.314;2023-08-21T13:43:34;27.90;81.20
14006;DHT22;7078;51.542;7.314;2023-08-21T13:46:03;27.90;76.90
14006;DHT22;7078;51.542;7.314;2023-08-21T13:48:34;28.10;76.80
14006;DHT22;7078;51.542;7.314;2023-08-21T13:51:00;28.30;78.70
14006;DHT22;7078;51.542;7.314;2023-08-21T13:53:25;28.50;73.40
14006;DHT22;7078;51.542;7.314;2023-08-21T13:55:51;28.60;74.50
14006;DHT22;7078;51.542;7.314;2023-08-21T13:58:17;28.70;75.00
14006;DHT22;7078;51.542;7.314;2023-08-21T14:00:42;28.90;73.50
14006;DHT22;7078;51.542;7.314;2023-08-21T14:03:09;29.00;73.70
14006;DHT22;7078;51.542;7.314;2023-08-21T14:05:35;28.90;72.60
14006;DHT22;7078;51.542;7.314;2023-08-21T14:08:00;28.70;73.10
14006;DHT22;7078;51.542;7.314;2023-08-21T14:10:26;28.30;76.20
14006;DHT22;7078;51.542;7.314;2023-08-21T14:12:52;28.10;75.40
14006;DHT22;7078;51.542;7.314;2023-08-21T14:15:18;28.00;77.00
14006;DHT22;7078;51.542;7.314;2023-08-21T14:17:44;27.80;76.50
14006;DHT22;7078;51.542;7.314;2023-08-21T14:20:10;27.70;78.20
14006;DHT22;7078;51.542;7.314;2023-08-21T14:22:39;27.60;76.10
14006;DHT22;7078;51.542;7.314;2023-08-21T14:25:05;27.50;78.40
14006;DHT22;7078;51.542;7.314;2023-08-21T14:27:31;27.40;75.70
14006;DHT22;7078;51.542;7.314;2023-08-21T14:29:57;27.40;76.30
14006;DHT22;7078;51.542;7.314;2023-08-21T14:32:23;27.40;76.50
14006;DHT22;7078;51.542;7.314;2023-08-21T14:34:48;27.40;80.00
14006;DHT22;7078;51.542;7.314;2023-08-21T14:37:14;27.40;81.10
14006;DHT22;7078;51.542;7.314;2023-08-21T14:39:41;27.40;79.40
14006;DHT22;7078;51.542;7.314;2023-08-21T14:42:08;27.50;80.60
14006;DHT22;7078;51.542;7.314;2023-08-21T14:44:33;27.80;79.10
14006;DHT22;7078;51.542;7.314;2023-08-21T14:46:59;27.70;77.50
14006;DHT22;7078;51.542;7.314;2023-08-21T14:49:25;27.80;77.90
14006;DHT22;7078;51.542;7.314;2023-08-21T14:51:51;28.10;77.60
14006;DHT22;7078;51.542;7.314;2023-08-21T14:54:17;28.30;75.30
14006;DHT22;7078;51.542;7.314;2023-08-21T14:56:42;28.30;73.40
14006;DHT22;7078;51.542;7.314;2023-08-21T14:59:08;28.10;76.00
14006;DHT22;7078;51.542;7.314;2023-08-21T15:01:39;27.90;75.60
14006;DHT22;7078;51.542;7.314;2023-08-21T15:04:05;27.60;75.40
14006;DHT22;7078;51.542;7.314;2023-08-21T15:06:31;27.40;76.90
14006;DHT22;7078;51.542;7.314;2023-08-21T15:08:57;27.30;79.80
14006;DHT22;7078;51.542;7.314;2023-08-21T15:11:22;27.10;81.30
14006;DHT22;7078;51.542;7.314;2023-08-21T15:13:48;26.90;81.10
14006;DHT22;7078;51.542;7.314;2023-08-21T15:16:13;26.90;85.00
14006;DHT22;7078;51.542;7.314;2023-08-21T15:18:39;26.70;81.80
14006;DHT22;7078;51.542;7.314;2023-08-21T15:21:04;26.70;84.00
14006;DHT22;7078;51.542;7.314;2023-08-21T15:23:30;27.00;85.10
14006;DHT22;7078;51.542;7.314;2023-08-21T15:25:56;27.70;88.20
14006;DHT22;7078;51.542;7.314;2023-08-21T15:28:21;28.20;80.90
14006;DHT22;7078;51.542;7.314;2023-08-21T15:30:47;29.10;74.20
14006;DHT22;7078;51.542;7.314;2023-08-21T15:33:12;30.50;72.10
14006;DHT22;7078;51.542;7.314;2023-08-21T15:35:38;30.70;66.30
14006;DHT22;7078;51.542;7.314;2023-08-21T15:38:03;30.40;70.00
14006;DHT22;7078;51.542;7.314;2023-08-21T15:40:29;29.80;72.10
14006;DHT22;7078;51.542;7.314;2023-08-21T15:42:55;29.40;71.30